This is the latest recevied weather packets stored in our database for station/object N4ZIQ. If no packets are shown the sender has not sent any weather packets the latest 1 day(s).
| Time | Temp. | Humidity | Pressure | Rain* | Wind** | Luminosity | Snow |
|---|---|---|---|---|---|---|---|
| 1778111745 | 26.11° C | 59% | 1015.7 hPa | 0 mm | - | 9 W/m² | - |
| 1778111445 | 26.67° C | 59% | 1015.7 hPa | 0 mm | - | 11 W/m² | - |
| 1778110255 | 27.78° C | 56% | 1015.6 hPa | 0 mm | - | 25 W/m² | - |
| 1778108463 | 28.89° C | 54% | 1015.6 hPa | 0 mm | - | 132 W/m² | - |
| 1778108145 | 28.89° C | 54% | 1015.6 hPa | 0 mm | - | 148 W/m² | - |
| 1778107845 | 28.89° C | 53% | 1015.6 hPa | 0 mm | - | 160 W/m² | - |
| 1778106045 | 30° C | 51% | 1015.5 hPa | 0 mm | - | 276 W/m² | - |
| 1778105750 | 30° C | 50% | 1015.6 hPa | 0 mm | - | 239 W/m² | - |
| 1778104548 | 31.11° C | 49% | 1015.6 hPa | 0 mm | - | 322 W/m² | - |
| 1778103645 | 31.67° C | 48% | 1015.3 hPa | 0 mm | - | 367 W/m² | - |
| 1778103053 | 32.22° C | 48% | 1015.4 hPa | 0 mm | - | 434 W/m² | - |
| 1778101545 | 32.78° C | 42% | 1015.2 hPa | 0 mm | - | 490 W/m² | - |
| 1778098568 | 32.78° C | 44% | 1015.4 hPa | 0 mm | - | 640 W/m² | - |
| 1778098246 | 33.33° C | 44% | 1015.4 hPa | 0 mm | - | 629 W/m² | - |
| 1778097651 | 32.78° C | 41% | 1015.4 hPa | 0 mm | - | 598 W/m² | - |
| 1778096755 | 32.78° C | 43% | 1015.6 hPa | 0 mm | - | 111 W/m² | - |
| 1778094051 | 32.78° C | 45% | 1016 hPa | 0 mm | - | 798 W/m² | - |
| 1778092545 | 32.22° C | 45% | 1016.5 hPa | 0 mm | - | 842 W/m² | - |
| 1778091944 | 31.67° C | 43% | 1016.6 hPa | 0 mm | - | 784 W/m² | - |
| 1778091353 | 32.78° C | 45% | 1016.6 hPa | 0 mm | - | 846 W/m² | - |
| 1778091044 | 32.78° C | 44% | 1016.6 hPa | 0 mm | - | 847 W/m² | - |
| 1778090453 | 32.22° C | 41% | 1016.8 hPa | 0 mm | - | 823 W/m² | - |
| 1778089846 | 32.22° C | 44% | 1017.1 hPa | 0 mm | - | 875 W/m² | - |
| 1778089244 | 32.78° C | 44% | 1017.2 hPa | 0 mm | - | 837 W/m² | - |
| 1778088945 | 32.22° C | 47% | 1017.2 hPa | 0 mm | - | 856 W/m² | - |
* Rain latest hour (hover to see other rain measurements)
** Current wind speed in m/s (hover to see current wind gust speed)